sensor_id;sensor_type;location;lat;lon;timestamp;temperature;humidity
43607;DHT22;29197;44.788;10.366;2024-02-28T00:02:29;11.40;99.90
43607;DHT22;29197;44.788;10.366;2024-02-28T00:05:18;11.50;99.90
43607;DHT22;29197;44.788;10.366;2024-02-28T00:08:08;11.40;99.90
43607;DHT22;29197;44.788;10.366;2024-02-28T00:10:57;11.50;99.90
43607;DHT22;29197;44.788;10.366;2024-02-28T00:13:45;11.50;99.90
43607;DHT22;29197;44.788;10.366;2024-02-28T00:16:34;11.60;99.90
43607;DHT22;29197;44.788;10.366;2024-02-28T00:19:22;11.60;99.90
43607;DHT22;29197;44.788;10.366;2024-02-28T00:22:12;11.60;99.90
43607;DHT22;29197;44.788;10.366;2024-02-28T00:25:02;11.50;99.90
43607;DHT22;29197;44.788;10.366;2024-02-28T00:27:53;11.50;99.90
43607;DHT22;29197;44.788;10.366;2024-02-28T00:30:42;11.50;99.90
43607;DHT22;29197;44.788;10.366;2024-02-28T00:33:31;11.60;99.90
43607;DHT22;29197;44.788;10.366;2024-02-28T00:36:19;11.60;99.90
43607;DHT22;29197;44.788;10.366;2024-02-28T00:39:08;11.70;99.90
43607;DHT22;29197;44.788;10.366;2024-02-28T00:41:58;11.60;99.90
43607;DHT22;29197;44.788;10.366;2024-02-28T00:44:46;11.60;99.90
43607;DHT22;29197;44.788;10.366;2024-02-28T00:47:35;11.50;99.90
43607;DHT22;29197;44.788;10.366;2024-02-28T00:50:23;11.50;99.90
43607;DHT22;29197;44.788;10.366;2024-02-28T00:53:12;11.50;99.90
43607;DHT22;29197;44.788;10.366;2024-02-28T00:56:01;11.60;99.90
43607;DHT22;29197;44.788;10.366;2024-02-28T00:58:51;11.60;99.90
43607;DHT22;29197;44.788;10.366;2024-02-28T01:01:40;11.60;99.90
43607;DHT22;29197;44.788;10.366;2024-02-28T01:04:29;11.60;99.90
43607;DHT22;29197;44.788;10.366;2024-02-28T01:07:17;11.70;99.90
43607;DHT22;29197;44.788;10.366;2024-02-28T01:10:07;11.70;99.90
43607;DHT22;29197;44.788;10.366;2024-02-28T01:12:55;11.70;99.90
43607;DHT22;29197;44.788;10.366;2024-02-28T01:15:46;11.70;99.90
43607;DHT22;29197;44.788;10.366;2024-02-28T01:18:34;11.80;99.90
43607;DHT22;29197;44.788;10.366;2024-02-28T01:21:23;11.80;99.90
43607;DHT22;29197;44.788;10.366;2024-02-28T01:24:12;11.80;99.90
43607;DHT22;29197;44.788;10.366;2024-02-28T01:27:00;11.80;99.90
43607;DHT22;29197;44.788;10.366;2024-02-28T01:29:50;11.80;99.90
43607;DHT22;29197;44.788;10.366;2024-02-28T01:32:42;11.80;99.90
43607;DHT22;29197;44.788;10.366;2024-02-28T01:35:30;11.80;99.90
43607;DHT22;29197;44.788;10.366;2024-02-28T01:38:19;11.80;99.90
43607;DHT22;29197;44.788;10.366;2024-02-28T01:41:07;11.80;99.90
43607;DHT22;29197;44.788;10.366;2024-02-28T01:43:56;11.80;99.90
43607;DHT22;29197;44.788;10.366;2024-02-28T01:46:44;11.80;99.90
43607;DHT22;29197;44.788;10.366;2024-02-28T01:49:35;11.80;99.90
43607;DHT22;29197;44.788;10.366;2024-02-28T01:52:24;11.70;99.90
43607;DHT22;29197;44.788;10.366;2024-02-28T01:55:12;11.70;99.90
43607;DHT22;29197;44.788;10.366;2024-02-28T01:58:01;11.70;99.90
43607;DHT22;29197;44.788;10.366;2024-02-28T02:00:53;11.70;99.90
43607;DHT22;29197;44.788;10.366;2024-02-28T02:03:43;11.70;99.90
43607;DHT22;29197;44.788;10.366;2024-02-28T02:06:33;11.70;99.90
43607;DHT22;29197;44.788;10.366;2024-02-28T02:09:25;11.70;99.90
43607;DHT22;29197;44.788;10.366;2024-02-28T02:12:14;11.70;99.90
43607;DHT22;29197;44.788;10.366;2024-02-28T02:15:04;11.80;99.90
43607;DHT22;29197;44.788;10.366;2024-02-28T02:17:53;11.80;99.90
43607;DHT22;29197;44.788;10.366;2024-02-28T02:20:44;11.80;99.90
43607;DHT22;29197;44.788;10.366;2024-02-28T02:23:36;11.80;99.90
43607;DHT22;29197;44.788;10.366;2024-02-28T02:26:28;11.80;99.90
43607;DHT22;29197;44.788;10.366;2024-02-28T02:29:16;11.80;99.90
43607;DHT22;29197;44.788;10.366;2024-02-28T02:32:05;11.80;99.90
43607;DHT22;29197;44.788;10.366;2024-02-28T02:34:54;11.80;99.90
43607;DHT22;29197;44.788;10.366;2024-02-28T02:37:43;11.80;99.90
43607;DHT22;29197;44.788;10.366;2024-02-28T02:40:36;11.80;99.90
43607;DHT22;29197;44.788;10.366;2024-02-28T02:43:25;11.90;99.90
43607;DHT22;29197;44.788;10.366;2024-02-28T02:46:13;11.90;99.90
43607;DHT22;29197;44.788;10.366;2024-02-28T02:49:02;11.90;99.90
43607;DHT22;29197;44.788;10.366;2024-02-28T02:51:50;11.90;99.90
43607;DHT22;29197;44.788;10.366;2024-02-28T02:54:39;11.90;99.90
43607;DHT22;29197;44.788;10.366;2024-02-28T02:57:29;11.90;99.90
43607;DHT22;29197;44.788;10.366;2024-02-28T03:00:19;11.90;99.90
43607;DHT22;29197;44.788;10.366;2024-02-28T03:03:08;11.90;99.90
43607;DHT22;29197;44.788;10.366;2024-02-28T03:05:56;11.90;99.90
43607;DHT22;29197;44.788;10.366;2024-02-28T03:08:45;11.90;99.90
43607;DHT22;29197;44.788;10.366;2024-02-28T03:11:33;11.90;99.90
43607;DHT22;29197;44.788;10.366;2024-02-28T03:14:23;11.90;99.90
43607;DHT22;29197;44.788;10.366;2024-02-28T03:17:14;11.90;99.90
43607;DHT22;29197;44.788;10.366;2024-02-28T03:20:03;11.90;99.90
43607;DHT22;29197;44.788;10.366;2024-02-28T03:22:54;11.90;99.90
43607;DHT22;29197;44.788;10.366;2024-02-28T03:25:42;11.90;99.90
43607;DHT22;29197;44.788;10.366;2024-02-28T03:28:31;11.90;99.90
43607;DHT22;29197;44.788;10.366;2024-02-28T03:31:21;11.90;99.90
43607;DHT22;29197;44.788;10.366;2024-02-28T03:34:10;11.90;99.90
43607;DHT22;29197;44.788;10.366;2024-02-28T03:36:58;11.90;99.90
43607;DHT22;29197;44.788;10.366;2024-02-28T03:39:47;11.90;99.90
43607;DHT22;29197;44.788;10.366;2024-02-28T03:42:36;11.90;99.90
43607;DHT22;29197;44.788;10.366;2024-02-28T03:45:26;11.90;99.90
43607;DHT22;29197;44.788;10.366;2024-02-28T03:48:16;11.90;99.90
43607;DHT22;29197;44.788;10.366;2024-02-28T03:51:05;11.90;99.90
43607;DHT22;29197;44.788;10.366;2024-02-28T03:53:54;11.90;99.90
43607;DHT22;29197;44.788;10.366;2024-02-28T03:56:42;11.90;99.90
43607;DHT22;29197;44.788;10.366;2024-02-28T03:59:31;11.90;99.90
43607;DHT22;29197;44.788;10.366;2024-02-28T04:02:19;11.90;99.90
43607;DHT22;29197;44.788;10.366;2024-02-28T04:05:10;11.90;99.90
43607;DHT22;29197;44.788;10.366;2024-02-28T04:07:59;11.90;99.90
43607;DHT22;29197;44.788;10.366;2024-02-28T04:13:37;12.00;99.90
43607;DHT22;29197;44.788;10.366;2024-02-28T04:16:28;12.00;99.90
43607;DHT22;29197;44.788;10.366;2024-02-28T04:19:16;12.00;99.90
43607;DHT22;29197;44.788;10.366;2024-02-28T04:22:06;12.00;99.90
43607;DHT22;29197;44.788;10.366;2024-02-28T04:24:55;12.00;99.90
43607;DHT22;29197;44.788;10.366;2024-02-28T04:27:43;12.00;99.90
43607;DHT22;29197;44.788;10.366;2024-02-28T04:30:33;12.00;99.90
43607;DHT22;29197;44.788;10.366;2024-02-28T04:33:23;12.00;99.90
43607;DHT22;29197;44.788;10.366;2024-02-28T04:36:11;11.90;99.90
43607;DHT22;29197;44.788;10.366;2024-02-28T04:39:01;12.00;99.90
43607;DHT22;29197;44.788;10.366;2024-02-28T04:41:53;11.90;99.90
43607;DHT22;29197;44.788;10.366;2024-02-28T04:44:41;12.00;99.90
43607;DHT22;29197;44.788;10.366;2024-02-28T04:47:30;12.00;99.90
43607;DHT22;29197;44.788;10.366;2024-02-28T04:50:29;12.00;99.90
43607;DHT22;29197;44.788;10.366;2024-02-28T04:53:18;12.00;99.90
43607;DHT22;29197;44.788;10.366;2024-02-28T04:56:08;12.00;99.90
43607;DHT22;29197;44.788;10.366;2024-02-28T04:58:56;12.00;99.90
43607;DHT22;29197;44.788;10.366;2024-02-28T05:01:45;12.00;99.90
43607;DHT22;29197;44.788;10.366;2024-02-28T05:04:34;12.00;99.90
43607;DHT22;29197;44.788;10.366;2024-02-28T05:07:23;12.00;99.90
43607;DHT22;29197;44.788;10.366;2024-02-28T05:10:12;12.00;99.90
43607;DHT22;29197;44.788;10.366;2024-02-28T05:13:02;12.00;99.90
43607;DHT22;29197;44.788;10.366;2024-02-28T05:15:51;12.00;99.90
43607;DHT22;29197;44.788;10.366;2024-02-28T05:18:40;12.00;99.90
43607;DHT22;29197;44.788;10.366;2024-02-28T05:21:28;12.00;99.90
43607;DHT22;29197;44.788;10.366;2024-02-28T05:24:17;12.10;99.90
43607;DHT22;29197;44.788;10.366;2024-02-28T05:27:05;12.40;99.90
43607;DHT22;29197;44.788;10.366;2024-02-28T05:29:55;12.60;99.90
43607;DHT22;29197;44.788;10.366;2024-02-28T05:32:44;12.70;99.90
43607;DHT22;29197;44.788;10.366;2024-02-28T05:35:32;12.70;99.90
43607;DHT22;29197;44.788;10.366;2024-02-28T05:38:21;12.80;99.90
43607;DHT22;29197;44.788;10.366;2024-02-28T05:41:09;13.00;99.90
43607;DHT22;29197;44.788;10.366;2024-02-28T05:43:58;13.20;99.90
43607;DHT22;29197;44.788;10.366;2024-02-28T05:46:48;13.10;99.90
43607;DHT22;29197;44.788;10.366;2024-02-28T05:49:36;13.00;99.90
43607;DHT22;29197;44.788;10.366;2024-02-28T05:52:26;12.80;99.90
43607;DHT22;29197;44.788;10.366;2024-02-28T05:55:14;12.70;99.90
43607;DHT22;29197;44.788;10.366;2024-02-28T05:58:03;12.60;99.90
43607;DHT22;29197;44.788;10.366;2024-02-28T06:00:52;12.50;99.90
43607;DHT22;29197;44.788;10.366;2024-02-28T06:03:42;12.40;99.90
43607;DHT22;29197;44.788;10.366;2024-02-28T06:06:31;12.40;99.90
43607;DHT22;29197;44.788;10.366;2024-02-28T06:09:20;12.40;99.90
43607;DHT22;29197;44.788;10.366;2024-02-28T06:12:08;12.30;99.90
43607;DHT22;29197;44.788;10.366;2024-02-28T06:14:57;12.30;99.90
43607;DHT22;29197;44.788;10.366;2024-02-28T06:17:45;12.30;99.90
43607;DHT22;29197;44.788;10.366;2024-02-28T06:20:35;12.20;99.90
43607;DHT22;29197;44.788;10.366;2024-02-28T06:23:25;12.20;99.90
43607;DHT22;29197;44.788;10.366;2024-02-28T06:26:16;12.20;99.90
43607;DHT22;29197;44.788;10.366;2024-02-28T06:29:05;12.20;99.90
43607;DHT22;29197;44.788;10.366;2024-02-28T06:31:54;12.20;99.90
43607;DHT22;29197;44.788;10.366;2024-02-28T06:34:43;12.20;99.90
43607;DHT22;29197;44.788;10.366;2024-02-28T06:37:33;12.20;99.90
43607;DHT22;29197;44.788;10.366;2024-02-28T06:40:22;12.20;99.90
43607;DHT22;29197;44.788;10.366;2024-02-28T06:43:11;12.20;99.90
43607;DHT22;29197;44.788;10.366;2024-02-28T06:45:59;12.20;99.90
43607;DHT22;29197;44.788;10.366;2024-02-28T06:48:48;12.20;99.90
43607;DHT22;29197;44.788;10.366;2024-02-28T06:51:37;12.20;99.90
43607;DHT22;29197;44.788;10.366;2024-02-28T06:54:27;12.20;99.90
43607;DHT22;29197;44.788;10.366;2024-02-28T06:57:15;12.20;99.90
43607;DHT22;29197;44.788;10.366;2024-02-28T07:00:06;12.20;99.90
43607;DHT22;29197;44.788;10.366;2024-02-28T07:02:55;12.20;99.90
43607;DHT22;29197;44.788;10.366;2024-02-28T07:05:44;12.10;99.90
43607;DHT22;29197;44.788;10.366;2024-02-28T07:08:33;12.10;99.90
43607;DHT22;29197;44.788;10.366;2024-02-28T07:11:23;12.10;99.90
43607;DHT22;29197;44.788;10.366;2024-02-28T07:14:11;12.10;99.90
43607;DHT22;29197;44.788;10.366;2024-02-28T07:17:03;12.10;99.90
43607;DHT22;29197;44.788;10.366;2024-02-28T07:19:52;12.20;99.90
43607;DHT22;29197;44.788;10.366;2024-02-28T07:22:42;12.20;99.90
43607;DHT22;29197;44.788;10.366;2024-02-28T07:25:31;12.20;99.90
43607;DHT22;29197;44.788;10.366;2024-02-28T07:28:21;12.20;99.90
43607;DHT22;29197;44.788;10.366;2024-02-28T07:31:14;12.20;99.90
43607;DHT22;29197;44.788;10.366;2024-02-28T07:34:03;12.20;99.90
43607;DHT22;29197;44.788;10.366;2024-02-28T07:36:52;12.20;99.90
43607;DHT22;29197;44.788;10.366;2024-02-28T07:39:40;12.20;99.90
43607;DHT22;29197;44.788;10.366;2024-02-28T07:42:29;12.20;99.90
43607;DHT22;29197;44.788;10.366;2024-02-28T07:45:19;12.10;99.90
43607;DHT22;29197;44.788;10.366;2024-02-28T07:48:07;12.20;99.90
43607;DHT22;29197;44.788;10.366;2024-02-28T07:50:56;12.20;99.90
43607;DHT22;29197;44.788;10.366;2024-02-28T07:53:45;12.20;99.90
43607;DHT22;29197;44.788;10.366;2024-02-28T07:56:34;12.20;99.90
43607;DHT22;29197;44.788;10.366;2024-02-28T07:59:22;12.20;99.90
43607;DHT22;29197;44.788;10.366;2024-02-28T08:02:12;12.20;99.90
43607;DHT22;29197;44.788;10.366;2024-02-28T08:05:01;12.20;99.90
43607;DHT22;29197;44.788;10.366;2024-02-28T08:07:50;12.20;99.90
43607;DHT22;29197;44.788;10.366;2024-02-28T08:10:39;12.20;99.90
43607;DHT22;29197;44.788;10.366;2024-02-28T08:13:27;12.20;99.90
43607;DHT22;29197;44.788;10.366;2024-02-28T08:16:16;12.30;99.90
43607;DHT22;29197;44.788;10.366;2024-02-28T08:19:07;12.30;99.90
43607;DHT22;29197;44.788;10.366;2024-02-28T08:21:56;12.30;99.90
43607;DHT22;29197;44.788;10.366;2024-02-28T08:24:45;12.30;99.90
43607;DHT22;29197;44.788;10.366;2024-02-28T08:27:33;12.30;99.90
43607;DHT22;29197;44.788;10.366;2024-02-28T08:30:22;12.30;99.90
43607;DHT22;29197;44.788;10.366;2024-02-28T08:33:11;12.30;99.90
43607;DHT22;29197;44.788;10.366;2024-02-28T08:36:01;12.30;99.90
43607;DHT22;29197;44.788;10.366;2024-02-28T08:38:49;12.30;99.90
43607;DHT22;29197;44.788;10.366;2024-02-28T08:41:38;12.30;99.90
43607;DHT22;29197;44.788;10.366;2024-02-28T08:44:27;12.30;99.90
43607;DHT22;29197;44.788;10.366;2024-02-28T08:47:15;12.30;99.90
43607;DHT22;29197;44.788;10.366;2024-02-28T08:50:06;12.30;99.90
43607;DHT22;29197;44.788;10.366;2024-02-28T08:52:56;12.30;99.90
43607;DHT22;29197;44.788;10.366;2024-02-28T08:55:44;12.30;99.90
43607;DHT22;29197;44.788;10.366;2024-02-28T08:58:33;12.30;99.90
43607;DHT22;29197;44.788;10.366;2024-02-28T09:01:22;12.30;99.90
43607;DHT22;29197;44.788;10.366;2024-02-28T09:04:11;12.30;99.90
43607;DHT22;29197;44.788;10.366;2024-02-28T09:06:59;12.30;99.90
43607;DHT22;29197;44.788;10.366;2024-02-28T09:09:49;12.30;99.90
43607;DHT22;29197;44.788;10.366;2024-02-28T09:12:38;12.30;99.90
43607;DHT22;29197;44.788;10.366;2024-02-28T09:15:26;12.30;99.90
43607;DHT22;29197;44.788;10.366;2024-02-28T09:18:17;12.30;99.90
43607;DHT22;29197;44.788;10.366;2024-02-28T09:21:07;12.30;99.90
43607;DHT22;29197;44.788;10.366;2024-02-28T09:23:55;12.30;99.90
43607;DHT22;29197;44.788;10.366;2024-02-28T09:26:45;12.30;99.90
43607;DHT22;29197;44.788;10.366;2024-02-28T09:29:34;12.30;99.90
43607;DHT22;29197;44.788;10.366;2024-02-28T09:32:23;12.20;99.90
43607;DHT22;29197;44.788;10.366;2024-02-28T09:35:11;12.20;99.90
43607;DHT22;29197;44.788;10.366;2024-02-28T09:38:00;12.20;99.90
43607;DHT22;29197;44.788;10.366;2024-02-28T09:40:49;12.30;99.90
43607;DHT22;29197;44.788;10.366;2024-02-28T09:43:41;12.30;99.90
43607;DHT22;29197;44.788;10.366;2024-02-28T09:46:30;12.30;99.90
43607;DHT22;29197;44.788;10.366;2024-02-28T09:49:20;12.40;99.90
43607;DHT22;29197;44.788;10.366;2024-02-28T09:52:09;12.40;99.90
43607;DHT22;29197;44.788;10.366;2024-02-28T09:54:58;12.20;99.90
43607;DHT22;29197;44.788;10.366;2024-02-28T09:57:48;12.10;99.90
43607;DHT22;29197;44.788;10.366;2024-02-28T10:00:38;12.10;99.90
43607;DHT22;29197;44.788;10.366;2024-02-28T10:03:31;12.20;99.90
43607;DHT22;29197;44.788;10.366;2024-02-28T10:06:20;12.20;99.90
43607;DHT22;29197;44.788;10.366;2024-02-28T10:09:09;12.20;99.90
43607;DHT22;29197;44.788;10.366;2024-02-28T10:11:58;12.30;99.90
43607;DHT22;29197;44.788;10.366;2024-02-28T10:14:50;12.30;99.90
43607;DHT22;29197;44.788;10.366;2024-02-28T10:17:40;12.40;99.90
43607;DHT22;29197;44.788;10.366;2024-02-28T10:20:31;12.40;99.90
43607;DHT22;29197;44.788;10.366;2024-02-28T10:23:19;12.50;99.90
43607;DHT22;29197;44.788;10.366;2024-02-28T10:26:09;12.50;99.90
43607;DHT22;29197;44.788;10.366;2024-02-28T10:28:58;12.60;99.90
43607;DHT22;29197;44.788;10.366;2024-02-28T10:31:47;12.60;99.90
43607;DHT22;29197;44.788;10.366;2024-02-28T10:34:37;12.70;99.90
43607;DHT22;29197;44.788;10.366;2024-02-28T10:37:28;12.70;99.90
43607;DHT22;29197;44.788;10.366;2024-02-28T10:40:17;12.70;99.90
43607;DHT22;29197;44.788;10.366;2024-02-28T10:43:08;12.80;99.90
43607;DHT22;29197;44.788;10.366;2024-02-28T10:45:58;12.80;99.90
43607;DHT22;29197;44.788;10.366;2024-02-28T10:48:50;12.80;99.90
43607;DHT22;29197;44.788;10.366;2024-02-28T10:51:45;12.80;99.90
43607;DHT22;29197;44.788;10.366;2024-02-28T10:54:36;12.80;99.90
43607;DHT22;29197;44.788;10.366;2024-02-28T10:57:29;12.80;99.90
43607;DHT22;29197;44.788;10.366;2024-02-28T11:00:19;12.80;99.90
43607;DHT22;29197;44.788;10.366;2024-02-28T11:03:08;12.80;99.90
43607;DHT22;29197;44.788;10.366;2024-02-28T11:05:57;12.80;99.90
43607;DHT22;29197;44.788;10.366;2024-02-28T11:08:48;12.80;99.90
43607;DHT22;29197;44.788;10.366;2024-02-28T11:11:40;12.90;99.90
43607;DHT22;29197;44.788;10.366;2024-02-28T11:14:29;12.90;99.90
43607;DHT22;29197;44.788;10.366;2024-02-28T11:17:26;12.90;99.90
43607;DHT22;29197;44.788;10.366;2024-02-28T11:20:16;12.90;99.90
43607;DHT22;29197;44.788;10.366;2024-02-28T11:23:06;12.90;99.90
43607;DHT22;29197;44.788;10.366;2024-02-28T11:25:57;12.90;99.90
43607;DHT22;29197;44.788;10.366;2024-02-28T11:28:46;12.90;99.90
43607;DHT22;29197;44.788;10.366;2024-02-28T11:31:34;12.90;99.90
43607;DHT22;29197;44.788;10.366;2024-02-28T11:34:23;12.90;99.90
43607;DHT22;29197;44.788;10.366;2024-02-28T11:37:11;12.90;99.90
43607;DHT22;29197;44.788;10.366;2024-02-28T11:40:00;12.90;99.90
43607;DHT22;29197;44.788;10.366;2024-02-28T11:42:50;12.90;99.90
43607;DHT22;29197;44.788;10.366;2024-02-28T11:45:39;12.90;99.90
43607;DHT22;29197;44.788;10.366;2024-02-28T11:48:28;12.90;99.90
43607;DHT22;29197;44.788;10.366;2024-02-28T11:51:18;12.90;99.90
43607;DHT22;29197;44.788;10.366;2024-02-28T11:54:07;12.90;99.90
43607;DHT22;29197;44.788;10.366;2024-02-28T11:56:57;12.90;99.90
43607;DHT22;29197;44.788;10.366;2024-02-28T11:59:48;12.90;99.90
43607;DHT22;29197;44.788;10.366;2024-02-28T12:02:38;12.90;99.90
43607;DHT22;29197;44.788;10.366;2024-02-28T12:05:26;12.90;99.90
43607;DHT22;29197;44.788;10.366;2024-02-28T12:08:17;12.90;99.90
43607;DHT22;29197;44.788;10.366;2024-02-28T12:11:06;12.90;99.90
43607;DHT22;29197;44.788;10.366;2024-02-28T12:13:57;12.90;99.90
43607;DHT22;29197;44.788;10.366;2024-02-28T12:16:48;12.90;99.90
43607;DHT22;29197;44.788;10.366;2024-02-28T12:19:37;12.90;99.90
43607;DHT22;29197;44.788;10.366;2024-02-28T12:22:27;12.90;99.90
43607;DHT22;29197;44.788;10.366;2024-02-28T12:25:15;12.90;99.90
43607;DHT22;29197;44.788;10.366;2024-02-28T12:28:05;12.90;99.90
43607;DHT22;29197;44.788;10.366;2024-02-28T12:30:54;12.90;99.90
43607;DHT22;29197;44.788;10.366;2024-02-28T12:33:44;12.90;99.90
43607;DHT22;29197;44.788;10.366;2024-02-28T12:36:33;12.90;99.90
43607;DHT22;29197;44.788;10.366;2024-02-28T12:39:21;12.90;99.90
43607;DHT22;29197;44.788;10.366;2024-02-28T12:42:10;12.90;99.90
43607;DHT22;29197;44.788;10.366;2024-02-28T12:45:00;12.90;99.90
43607;DHT22;29197;44.788;10.366;2024-02-28T12:47:48;12.90;99.90
43607;DHT22;29197;44.788;10.366;2024-02-28T12:50:38;12.80;99.90
43607;DHT22;29197;44.788;10.366;2024-02-28T12:53:27;12.90;99.90
43607;DHT22;29197;44.788;10.366;2024-02-28T12:56:15;12.90;99.90
43607;DHT22;29197;44.788;10.366;2024-02-28T12:59:04;12.90;99.90
43607;DHT22;29197;44.788;10.366;2024-02-28T13:01:54;12.90;99.90
43607;DHT22;29197;44.788;10.366;2024-02-28T13:04:43;12.90;99.90
43607;DHT22;29197;44.788;10.366;2024-02-28T13:07:33;12.90;99.90
43607;DHT22;29197;44.788;10.366;2024-02-28T13:10:23;12.90;99.90
43607;DHT22;29197;44.788;10.366;2024-02-28T13:13:13;12.80;99.90
43607;DHT22;29197;44.788;10.366;2024-02-28T13:16:01;12.80;99.90
43607;DHT22;29197;44.788;10.366;2024-02-28T13:18:50;12.80;99.90
43607;DHT22;29197;44.788;10.366;2024-02-28T13:21:39;12.90;99.90
43607;DHT22;29197;44.788;10.366;2024-02-28T13:24:29;12.80;99.90
43607;DHT22;29197;44.788;10.366;2024-02-28T13:27:18;12.80;99.90
43607;DHT22;29197;44.788;10.366;2024-02-28T13:30:07;12.80;99.90
43607;DHT22;29197;44.788;10.366;2024-02-28T13:32:56;12.80;99.90
43607;DHT22;29197;44.788;10.366;2024-02-28T13:35:44;12.80;99.90
43607;DHT22;29197;44.788;10.366;2024-02-28T13:38:33;12.80;99.90
43607;DHT22;29197;44.788;10.366;2024-02-28T13:41:23;12.80;99.90
43607;DHT22;29197;44.788;10.366;2024-02-28T13:44:11;12.80;99.90
43607;DHT22;29197;44.788;10.366;2024-02-28T13:47:00;12.80;99.90
43607;DHT22;29197;44.788;10.366;2024-02-28T13:49:48;12.80;99.90
43607;DHT22;29197;44.788;10.366;2024-02-28T13:52:37;12.80;99.90
43607;DHT22;29197;44.788;10.366;2024-02-28T13:55:25;12.80;99.90
43607;DHT22;29197;44.788;10.366;2024-02-28T13:58:15;12.80;99.90
43607;DHT22;29197;44.788;10.366;2024-02-28T14:01:05;12.80;99.90
43607;DHT22;29197;44.788;10.366;2024-02-28T14:03:54;12.80;99.90
43607;DHT22;29197;44.788;10.366;2024-02-28T14:06:43;12.80;99.90
43607;DHT22;29197;44.788;10.366;2024-02-28T14:09:32;12.80;99.90
43607;DHT22;29197;44.788;10.366;2024-02-28T14:12:20;12.80;99.90
43607;DHT22;29197;44.788;10.366;2024-02-28T14:15:10;12.80;99.90
43607;DHT22;29197;44.788;10.366;2024-02-28T14:17:59;12.80;99.90
43607;DHT22;29197;44.788;10.366;2024-02-28T14:20:47;12.80;99.90
43607;DHT22;29197;44.788;10.366;2024-02-28T14:23:36;12.80;99.90
43607;DHT22;29197;44.788;10.366;2024-02-28T14:26:25;12.80;99.90
43607;DHT22;29197;44.788;10.366;2024-02-28T14:29:14;12.80;99.90
43607;DHT22;29197;44.788;10.366;2024-02-28T14:32:05;12.80;99.90
43607;DHT22;29197;44.788;10.366;2024-02-28T14:34:54;12.80;99.90
43607;DHT22;29197;44.788;10.366;2024-02-28T14:37:42;12.80;99.90
43607;DHT22;29197;44.788;10.366;2024-02-28T14:40:32;12.80;99.90
43607;DHT22;29197;44.788;10.366;2024-02-28T14:43:20;12.80;99.90
43607;DHT22;29197;44.788;10.366;2024-02-28T14:46:09;12.80;99.90
43607;DHT22;29197;44.788;10.366;2024-02-28T14:49:00;12.80;99.90
43607;DHT22;29197;44.788;10.366;2024-02-28T14:51:50;12.80;99.90
43607;DHT22;29197;44.788;10.366;2024-02-28T14:54:38;12.80;99.90
43607;DHT22;29197;44.788;10.366;2024-02-28T14:57:27;12.80;99.90
43607;DHT22;29197;44.788;10.366;2024-02-28T15:00:18;12.80;99.90
43607;DHT22;29197;44.788;10.366;2024-02-28T15:03:08;12.90;99.90
43607;DHT22;29197;44.788;10.366;2024-02-28T15:05:58;12.90;99.90
43607;DHT22;29197;44.788;10.366;2024-02-28T15:08:47;12.90;99.90
43607;DHT22;29197;44.788;10.366;2024-02-28T15:11:36;12.90;99.90
43607;DHT22;29197;44.788;10.366;2024-02-28T15:14:25;12.90;99.90
43607;DHT22;29197;44.788;10.366;2024-02-28T15:17:13;12.90;99.90
43607;DHT22;29197;44.788;10.366;2024-02-28T15:20:02;12.90;99.90
43607;DHT22;29197;44.788;10.366;2024-02-28T15:22:56;13.00;99.90
43607;DHT22;29197;44.788;10.366;2024-02-28T15:25:46;13.00;99.90
43607;DHT22;29197;44.788;10.366;2024-02-28T15:28:35;13.00;99.90
43607;DHT22;29197;44.788;10.366;2024-02-28T15:31:24;13.00;99.90
43607;DHT22;29197;44.788;10.366;2024-02-28T15:34:14;13.00;99.90
43607;DHT22;29197;44.788;10.366;2024-02-28T15:37:03;13.00;99.90
43607;DHT22;29197;44.788;10.366;2024-02-28T15:39:53;13.00;99.90
43607;DHT22;29197;44.788;10.366;2024-02-28T15:42:43;13.10;99.90
43607;DHT22;29197;44.788;10.366;2024-02-28T15:45:31;13.00;99.90
43607;DHT22;29197;44.788;10.366;2024-02-28T15:48:20;13.10;99.90
43607;DHT22;29197;44.788;10.366;2024-02-28T15:51:08;13.10;99.90
43607;DHT22;29197;44.788;10.366;2024-02-28T15:53:57;13.10;99.90
43607;DHT22;29197;44.788;10.366;2024-02-28T15:56:48;13.10;99.90
43607;DHT22;29197;44.788;10.366;2024-02-28T15:59:36;13.10;99.90
43607;DHT22;29197;44.788;10.366;2024-02-28T16:02:27;13.00;99.90
43607;DHT22;29197;44.788;10.366;2024-02-28T16:05:16;13.10;99.90
43607;DHT22;29197;44.788;10.366;2024-02-28T16:08:05;13.10;99.90
43607;DHT22;29197;44.788;10.366;2024-02-28T16:10:54;13.10;99.90
43607;DHT22;29197;44.788;10.366;2024-02-28T16:13:44;13.00;99.90
43607;DHT22;29197;44.788;10.366;2024-02-28T16:16:35;13.00;99.90
43607;DHT22;29197;44.788;10.366;2024-02-28T16:19:24;13.00;99.90
43607;DHT22;29197;44.788;10.366;2024-02-28T16:22:14;13.00;99.90
43607;DHT22;29197;44.788;10.366;2024-02-28T16:25:05;13.00;99.90
43607;DHT22;29197;44.788;10.366;2024-02-28T16:27:54;13.00;99.90
43607;DHT22;29197;44.788;10.366;2024-02-28T16:30:45;13.00;99.90
43607;DHT22;29197;44.788;10.366;2024-02-28T16:33:34;13.00;99.90
43607;DHT22;29197;44.788;10.366;2024-02-28T16:36:25;13.00;99.90
43607;DHT22;29197;44.788;10.366;2024-02-28T16:39:15;13.00;99.90
43607;DHT22;29197;44.788;10.366;2024-02-28T16:42:06;13.00;99.90
43607;DHT22;29197;44.788;10.366;2024-02-28T16:44:54;13.00;99.90
43607;DHT22;29197;44.788;10.366;2024-02-28T16:47:44;13.00;99.90
43607;DHT22;29197;44.788;10.366;2024-02-28T16:50:33;13.00;99.90
43607;DHT22;29197;44.788;10.366;2024-02-28T16:53:21;12.90;99.90
43607;DHT22;29197;44.788;10.366;2024-02-28T16:56:10;12.90;99.90
43607;DHT22;29197;44.788;10.366;2024-02-28T16:58:59;12.80;99.90
43607;DHT22;29197;44.788;10.366;2024-02-28T17:01:48;12.80;99.90
43607;DHT22;29197;44.788;10.366;2024-02-28T17:04:39;12.80;99.90
43607;DHT22;29197;44.788;10.366;2024-02-28T17:07:27;12.80;99.90
43607;DHT22;29197;44.788;10.366;2024-02-28T17:10:17;12.80;99.90
43607;DHT22;29197;44.788;10.366;2024-02-28T17:13:06;12.80;99.90
43607;DHT22;29197;44.788;10.366;2024-02-28T17:15:58;12.80;99.90
43607;DHT22;29197;44.788;10.366;2024-02-28T17:18:50;12.60;99.90
43607;DHT22;29197;44.788;10.366;2024-02-28T17:21:40;12.70;99.90
43607;DHT22;29197;44.788;10.366;2024-02-28T17:24:29;12.70;99.90
43607;DHT22;29197;44.788;10.366;2024-02-28T17:27:17;12.70;99.90
43607;DHT22;29197;44.788;10.366;2024-02-28T17:30:07;12.70;99.90
43607;DHT22;29197;44.788;10.366;2024-02-28T17:32:55;12.80;99.90
43607;DHT22;29197;44.788;10.366;2024-02-28T17:35:44;12.60;99.90